This is the latest recevied weather packets stored in our database for station/object KMASWX. If no packets are shown the sender has not sent any weather packets the latest 10 day(s).
| Time | Temp. | Humidity | Pressure | Rain* | Wind** | Luminosity | Snow |
|---|---|---|---|---|---|---|---|
| 1777763626 | 26.67° C | 19% | - | 0 mm | - | - | - |
| 1777763319 | 27.78° C | 19% | - | 0 mm | - | - | - |
| 1777762712 | 27.78° C | 18% | - | 0 mm | - | - | - |
| 1777761796 | 26.67° C | 20% | - | 0 mm | - | - | - |
| 1777761187 | 27.22° C | 20% | - | 0 mm | - | - | - |
| 1777760883 | 26.67° C | 21% | - | 0 mm | - | - | - |
| 1777760579 | 25.56° C | 21% | - | 0 mm | - | - | - |
| 1777760272 | 25.56° C | 20% | - | 0 mm | - | - | - |
| 1777759968 | 26.11° C | 19% | - | 0 mm | - | - | - |
| 1777759665 | 27.78° C | 19% | - | 0 mm | - | - | - |
| 1777759361 | 26.67° C | 20% | - | 0 mm | - | - | - |
| 1777759058 | 26.67° C | 20% | - | 0 mm | - | - | - |
| 1777758754 | 27.22° C | 19% | - | 0 mm | - | - | - |
| 1777758450 | 27.22° C | 19% | - | 0 mm | - | - | - |
| 1777758147 | 27.78° C | 19% | - | 0 mm | - | - | - |
| 1777757843 | 27.22° C | 20% | - | 0 mm | - | - | - |
| 1777757539 | 26.11° C | 21% | - | 0 mm | - | - | - |
| 1777757233 | 26.11° C | 21% | - | 0 mm | - | - | - |
| 1777756929 | 25.56° C | 22% | - | 0 mm | - | - | - |
| 1777756626 | 25° C | 24% | - | 0 mm | - | - | - |
| 1777756322 | 25° C | 24% | - | 0 mm | - | - | - |
| 1777756016 | 25.56° C | 23% | - | 0 mm | - | - | - |
| 1777755712 | 25° C | 26% | - | 0 mm | - | - | - |
| 1777755409 | 25° C | 24% | - | 0 mm | - | - | - |
| 1777755102 | 25.56° C | 24% | - | 0 mm | - | - | - |
* Rain latest 24 hours (hover to see other rain measurements)
** Current wind speed in m/s (hover to see current wind gust speed)